createdAt,value
2017-03-24T00:00:12.390Z,48.25
2017-03-24T00:01:10.845Z,50.45
2017-03-24T00:02:10.082Z,51.92
2017-03-24T00:03:09.327Z,47.67
2017-03-24T00:04:08.189Z,51.65
2017-03-24T00:05:06.692Z,46.98
2017-03-24T00:06:05.965Z,45.30
2017-03-24T00:07:05.197Z,46.87
2017-03-24T00:08:03.718Z,45.32
2017-03-24T00:09:03.469Z,52.73
2017-03-24T00:10:02.328Z,48.35
2017-03-24T00:11:00.820Z,49.93
2017-03-24T00:11:59.279Z,54.40
2017-03-24T00:12:59.389Z,53.18
2017-03-24T00:13:57.843Z,55.90
2017-03-24T00:14:56.365Z,44.02
2017-03-24T00:15:55.165Z,44.82
2017-03-24T00:16:53.620Z,43.33
2017-03-24T00:17:52.946Z,42.68
2017-03-24T00:18:51.397Z,38.68
2017-03-24T00:19:50.664Z,55.25
2017-03-24T00:20:49.192Z,41.72
2017-03-24T00:21:48.701Z,39.87
2017-03-24T00:22:47.153Z,43.03
2017-03-24T00:23:46.400Z,53.38
2017-03-24T00:24:45.086Z,49.27
2017-03-24T00:25:44.312Z,40.18
2017-03-24T00:26:43.580Z,40.30
2017-03-24T00:27:43.197Z,42.92
2017-03-24T00:28:42.429Z,47.67
2017-03-24T00:29:41.652Z,41.67
2017-03-24T00:30:40.890Z,49.98
2017-03-24T00:31:40.108Z,54.28
2017-03-24T00:32:38.581Z,52.80
2017-03-24T00:33:38.189Z,47.67
2017-03-24T00:34:37.400Z,43.22
2017-03-24T00:35:35.886Z,44.15
2017-03-24T00:36:35.136Z,43.63
2017-03-24T00:37:33.720Z,38.07
2017-03-24T00:38:33.009Z,41.67
2017-03-24T00:39:32.547Z,43.15
2017-03-24T00:40:31.022Z,43.13
2017-03-24T00:41:29.468Z,38.75
2017-03-24T00:42:27.935Z,41.08
2017-03-24T00:43:26.415Z,37.68
2017-03-24T00:44:24.885Z,49.33
2017-03-24T00:45:23.744Z,42.68
2017-03-24T00:46:22.283Z,36.98
2017-03-24T00:47:21.573Z,48.88
2017-03-24T00:48:20.812Z,43.12
2017-03-24T00:49:19.294Z,50.63
2017-03-24T00:50:18.575Z,39.27
2017-03-24T00:51:18.261Z,44.55
2017-03-24T00:52:16.780Z,36.60
2017-03-24T00:53:16.020Z,41.98
2017-03-24T00:54:15.289Z,40.77
2017-03-24T00:55:13.761Z,41.65
2017-03-24T00:56:12.990Z,49.87
2017-03-24T00:57:11.780Z,44.80
2017-03-24T00:58:10.238Z,41.12
2017-03-24T00:59:08.726Z,44.32
2017-03-24T01:00:07.199Z,37.43
2017-03-24T01:01:06.495Z,42.28
2017-03-24T01:02:05.756Z,51.55
2017-03-24T01:03:04.621Z,38.57
2017-03-24T01:04:03.844Z,51.42
2017-03-24T01:05:03.225Z,36.15
2017-03-24T01:06:02.511Z,46.02
2017-03-24T01:07:01.828Z,54.70
2017-03-24T01:08:00.288Z,42.27
2017-03-24T01:08:59.907Z,43.77
2017-03-24T01:09:58.380Z,46.62
2017-03-24T01:10:57.652Z,42.30
2017-03-24T01:11:56.120Z,39.93
2017-03-24T01:12:55.389Z,48.45
2017-03-24T01:13:53.857Z,46.85
2017-03-24T01:14:52.745Z,40.42
2017-03-24T01:15:51.223Z,42.20
2017-03-24T01:16:49.721Z,54.03
2017-03-24T01:17:48.945Z,49.13
2017-03-24T01:18:47.422Z,43.85
2017-03-24T01:19:45.953Z,46.88
2017-03-24T01:20:45.479Z,48.63
2017-03-24T01:21:43.962Z,37.92
2017-03-24T01:22:42.450Z,42.07
2017-03-24T01:23:40.909Z,48.95
2017-03-24T01:24:40.192Z,44.32
2017-03-24T01:25:39.486Z,50.82
2017-03-24T01:26:39.148Z,41.85
2017-03-24T01:27:37.625Z,42.75
2017-03-24T01:28:36.106Z,46.68
2017-03-24T01:29:35.350Z,47.07
2017-03-24T01:30:34.588Z,38.02
2017-03-24T01:31:33.822Z,43.52
2017-03-24T01:32:32.589Z,40.85
2017-03-24T01:33:31.056Z,40.02
2017-03-24T01:34:30.272Z,36.75
2017-03-24T01:35:28.737Z,41.58
2017-03-24T01:36:27.973Z,45.22
2017-03-24T01:37:26.441Z,47.50
2017-03-24T01:38:26.037Z,47.82
2017-03-24T01:39:25.296Z,50.58
2017-03-24T01:40:23.772Z,35.97
2017-03-24T01:41:22.261Z,38.70
2017-03-24T01:42:21.549Z,45.47
2017-03-24T01:43:20.776Z,41.95
2017-03-24T01:44:20.292Z,44.22
2017-03-24T01:45:19.531Z,46.25
2017-03-24T01:46:18.786Z,37.03
2017-03-24T01:47:17.259Z,55.42
2017-03-24T01:48:15.757Z,35.05
2017-03-24T01:49:14.234Z,47.92
2017-03-24T01:50:13.795Z,48.78
2017-03-24T01:51:12.265Z,45.22
2017-03-24T01:52:10.723Z,42.82
2017-03-24T01:53:09.211Z,46.32
2017-03-24T01:54:08.526Z,50.80
2017-03-24T01:55:07.037Z,43.78
2017-03-24T01:56:05.873Z,45.52
2017-03-24T01:57:04.424Z,41.92
2017-03-24T01:58:02.891Z,36.07
2017-03-24T01:59:01.377Z,41.20
2017-03-24T02:00:00.601Z,48.60
2017-03-24T02:00:59.869Z,35.65
2017-03-24T02:01:58.713Z,44.00
2017-03-24T02:02:57.957Z,51.47
2017-03-24T02:03:57.197Z,38.92
2017-03-24T02:04:55.661Z,48.47
2017-03-24T02:05:55.641Z,37.18
2017-03-24T02:06:54.872Z,38.38
2017-03-24T02:07:54.456Z,44.32
2017-03-24T02:08:52.950Z,39.43
2017-03-24T02:09:52.204Z,45.88
2017-03-24T02:10:54.164Z,40.90
2017-03-24T02:11:53.444Z,45.25
2017-03-24T02:12:52.693Z,48.47
2017-03-24T02:13:51.445Z,37.48
2017-03-24T02:14:49.922Z,38.97
2017-03-24T02:15:48.374Z,37.07
2017-03-24T02:16:47.652Z,44.40
2017-03-24T02:17:46.134Z,38.33
2017-03-24T02:18:45.369Z,44.25
2017-03-24T02:19:45.517Z,42.62
2017-03-24T02:20:43.972Z,47.10
2017-03-24T02:21:42.464Z,42.12
2017-03-24T02:22:40.938Z,43.75
2017-03-24T02:23:39.402Z,45.95
2017-03-24T02:24:37.944Z,37.88
2017-03-24T02:25:37.452Z,41.00
2017-03-24T02:26:35.959Z,33.40
2017-03-24T02:27:35.197Z,40.97
2017-03-24T02:28:34.430Z,34.08
2017-03-24T02:29:32.890Z,33.70
2017-03-24T02:30:31.354Z,34.72
2017-03-24T02:31:30.237Z,32.93
2017-03-24T02:32:28.689Z,37.05
2017-03-24T02:33:27.899Z,45.72
2017-03-24T02:34:26.370Z,30.27
2017-03-24T02:35:24.827Z,39.62
2017-03-24T02:36:23.296Z,33.53
2017-03-24T02:37:22.075Z,31.22
2017-03-24T02:38:20.597Z,33.28
2017-03-24T02:39:19.969Z,31.45
2017-03-24T02:40:18.428Z,34.55
2017-03-24T02:41:16.904Z,38.02
2017-03-24T02:42:16.166Z,37.12
2017-03-24T02:43:15.735Z,32.65
2017-03-24T02:44:14.188Z,31.22
2017-03-24T02:45:13.428Z,35.25
2017-03-24T02:46:12.920Z,39.55
2017-03-24T02:47:12.173Z,35.55
2017-03-24T02:48:10.644Z,28.32
2017-03-24T02:49:10.465Z,34.72
2017-03-24T02:50:09.748Z,33.32
2017-03-24T02:51:08.492Z,34.75
2017-03-24T02:52:07.815Z,36.08
2017-03-24T02:53:07.086Z,34.28
2017-03-24T02:54:06.354Z,30.62
2017-03-24T02:55:05.936Z,27.72
2017-03-24T02:56:05.194Z,29.07
2017-03-24T02:57:03.653Z,36.37
2017-03-24T02:58:02.144Z,29.60
2017-03-24T02:59:01.401Z,33.67
2017-03-24T02:59:59.886Z,29.38
2017-03-24T03:00:58.654Z,33.70
2017-03-24T03:01:57.142Z,35.47
2017-03-24T03:02:55.617Z,30.17
2017-03-24T03:03:54.092Z,27.03
2017-03-24T03:04:53.382Z,26.55
2017-03-24T03:05:52.615Z,35.80
2017-03-24T03:06:51.408Z,30.05
2017-03-24T03:07:49.873Z,33.70
2017-03-24T03:08:48.417Z,36.65
2017-03-24T03:09:47.642Z,25.87
2017-03-24T03:10:46.869Z,30.60
2017-03-24T03:11:45.342Z,34.17
2017-03-24T03:12:44.929Z,29.08
2017-03-24T03:13:43.402Z,28.08
2017-03-24T03:14:42.660Z,29.52
2017-03-24T03:15:41.104Z,24.92
2017-03-24T03:16:40.360Z,27.83
2017-03-24T03:17:38.824Z,27.23
2017-03-24T03:18:37.764Z,27.90
2017-03-24T03:19:36.230Z,27.80
2017-03-24T03:20:34.689Z,32.30
2017-03-24T03:21:33.944Z,30.03
2017-03-24T03:22:33.200Z,30.57
2017-03-24T03:23:31.689Z,28.90
2017-03-24T03:24:31.219Z,27.03
2017-03-24T03:25:29.708Z,32.18
2017-03-24T03:26:28.170Z,30.72
2017-03-24T03:27:26.640Z,30.13
2017-03-24T03:28:25.897Z,31.23
2017-03-24T03:29:24.349Z,22.23
2017-03-24T03:30:23.200Z,30.63
2017-03-24T03:31:21.724Z,30.27
2017-03-24T03:32:20.209Z,26.52
2017-03-24T03:33:19.489Z,25.33
2017-03-24T03:34:17.947Z,24.07
2017-03-24T03:35:16.432Z,31.97
2017-03-24T03:36:15.962Z,26.75
2017-03-24T03:37:15.188Z,27.88
2017-03-24T03:38:13.669Z,26.80
2017-03-24T03:39:12.897Z,32.02
2017-03-24T03:40:11.388Z,30.13
2017-03-24T03:41:09.874Z,23.35
2017-03-24T03:42:08.707Z,27.12
2017-03-24T03:43:07.193Z,23.33
2017-03-24T03:44:06.461Z,29.90
2017-03-24T03:45:04.948Z,30.35
2017-03-24T03:46:03.410Z,30.27
2017-03-24T03:47:01.897Z,29.10
2017-03-24T03:48:00.725Z,23.65
2017-03-24T03:48:59.176Z,26.42
2017-03-24T03:49:58.420Z,23.17
2017-03-24T03:50:57.685Z,24.62
2017-03-24T03:51:56.144Z,30.43
2017-03-24T03:52:55.557Z,25.55
2017-03-24T03:53:54.377Z,20.72
2017-03-24T03:54:53.627Z,22.48
2017-03-24T03:55:52.089Z,28.03
2017-03-24T03:56:51.308Z,28.00
2017-03-24T03:57:50.629Z,28.95
2017-03-24T03:58:49.100Z,19.45
2017-03-24T03:59:48.749Z,25.80
2017-03-24T04:00:47.975Z,26.57
2017-03-24T04:01:47.276Z,23.68
2017-03-24T04:02:46.492Z,26.90
2017-03-24T04:03:44.968Z,16.57
2017-03-24T04:04:43.461Z,23.27
2017-03-24T04:05:43.004Z,19.05
2017-03-24T04:06:41.469Z,23.27
2017-03-24T04:07:40.013Z,21.60
2017-03-24T04:08:38.557Z,25.48
2017-03-24T04:09:37.017Z,20.55
2017-03-24T04:10:35.489Z,21.75
2017-03-24T04:11:35.032Z,19.00
2017-03-24T04:12:33.493Z,20.67
2017-03-24T04:13:32.724Z,24.50
2017-03-24T04:14:31.953Z,18.75
2017-03-24T04:15:31.200Z,18.38
2017-03-24T04:16:30.433Z,26.93
2017-03-24T04:17:30.184Z,25.33
2017-03-24T04:18:29.419Z,14.55
2017-03-24T04:19:28.650Z,22.58
2017-03-24T04:20:27.910Z,17.95
2017-03-24T04:21:26.392Z,19.50
2017-03-24T04:22:25.661Z,19.63
2017-03-24T04:23:25.208Z,20.63
2017-03-24T04:24:23.673Z,21.28
2017-03-24T04:25:22.149Z,22.25
2017-03-24T04:26:20.693Z,23.08
2017-03-24T04:27:19.937Z,14.62
2017-03-24T04:28:19.189Z,24.25
2017-03-24T04:29:18.425Z,16.00
2017-03-24T04:30:16.936Z,22.38
2017-03-24T04:31:15.415Z,17.73
2017-03-24T04:32:14.664Z,21.85
2017-03-24T04:33:13.896Z,19.92
2017-03-24T04:34:13.193Z,18.85
2017-03-24T04:35:12.728Z,23.40
2017-03-24T04:36:11.188Z,19.27
2017-03-24T04:37:09.652Z,18.23
2017-03-24T04:38:08.132Z,18.87
2017-03-24T04:39:07.364Z,19.78
2017-03-24T04:40:06.604Z,22.75
2017-03-24T04:41:05.366Z,18.07
2017-03-24T04:42:03.839Z,18.37
2017-03-24T04:43:03.068Z,20.98
2017-03-24T04:44:01.553Z,18.08
2017-03-24T04:45:00.024Z,19.23
2017-03-24T04:45:58.488Z,17.48
2017-03-24T04:46:57.280Z,17.23
2017-03-24T04:47:55.743Z,20.35
2017-03-24T04:48:54.261Z,17.80
2017-03-24T04:49:53.513Z,23.13
2017-03-24T04:50:52.354Z,20.73
2017-03-24T04:51:51.685Z,15.40
2017-03-24T04:52:51.237Z,20.35
2017-03-24T04:53:50.472Z,19.98
2017-03-24T04:54:49.765Z,19.53
2017-03-24T04:55:48.991Z,19.53
2017-03-24T04:56:47.495Z,23.45
2017-03-24T04:57:46.730Z,20.98
2017-03-24T04:58:46.441Z,24.50
2017-03-24T04:59:44.917Z,16.08
2017-03-24T05:00:43.392Z,23.08
2017-03-24T05:01:41.915Z,23.02
2017-03-24T05:02:40.425Z,18.82
2017-03-24T05:03:38.905Z,19.78
2017-03-24T05:04:38.424Z,17.82
2017-03-24T05:05:37.667Z,18.00
2017-03-24T05:06:36.896Z,20.38
2017-03-24T05:07:36.140Z,19.83
2017-03-24T05:08:35.416Z,18.33
2017-03-24T05:09:34.649Z,17.03
2017-03-24T05:10:34.188Z,19.25
2017-03-24T05:11:33.403Z,17.90
2017-03-24T05:12:32.646Z,19.32
2017-03-24T05:13:31.249Z,19.37
2017-03-24T05:14:30.539Z,18.28
2017-03-24T05:15:29.002Z,17.53
2017-03-24T05:16:27.744Z,18.57
2017-03-24T05:17:26.254Z,16.83
2017-03-24T05:18:24.723Z,20.40
2017-03-24T05:19:24.024Z,20.02
2017-03-24T05:20:22.531Z,21.55
2017-03-24T05:21:21.089Z,16.17
2017-03-24T05:22:19.948Z,18.10
2017-03-24T05:23:18.413Z,21.12
2017-03-24T05:24:16.905Z,23.83
2017-03-24T05:25:16.160Z,24.67
2017-03-24T05:26:14.616Z,19.32
2017-03-24T05:27:13.109Z,21.77
2017-03-24T05:28:12.669Z,23.88
2017-03-24T05:29:11.132Z,20.65
2017-03-24T05:30:09.611Z,22.15
2017-03-24T05:31:08.097Z,19.62
2017-03-24T05:32:07.345Z,25.65
2017-03-24T05:33:05.809Z,22.03
2017-03-24T05:34:04.769Z,18.38
2017-03-24T05:35:03.241Z,19.37
2017-03-24T05:36:01.703Z,26.65
2017-03-24T05:37:00.264Z,17.43
2017-03-24T05:37:59.513Z,22.50
2017-03-24T05:38:58.796Z,16.83
2017-03-24T05:39:58.437Z,17.42
2017-03-24T05:40:56.906Z,18.20
2017-03-24T05:41:55.456Z,15.25
2017-03-24T05:42:54.674Z,21.38
2017-03-24T05:43:53.124Z,19.95
2017-03-24T05:44:51.569Z,14.72
2017-03-24T05:45:50.365Z,18.40
2017-03-24T05:46:49.672Z,18.87
2017-03-24T05:47:48.893Z,19.57
2017-03-24T05:48:48.125Z,17.92
2017-03-24T05:49:46.580Z,21.55
2017-03-24T05:50:45.039Z,17.85
2017-03-24T05:51:43.892Z,17.80
2017-03-24T05:52:42.424Z,14.78
2017-03-24T05:53:41.670Z,14.60
2017-03-24T05:54:40.175Z,15.32
2017-03-24T05:55:38.713Z,14.90
2017-03-24T05:56:38.052Z,19.35
2017-03-24T05:57:36.805Z,21.42
2017-03-24T05:58:36.041Z,18.25
2017-03-24T05:59:35.426Z,16.32
2017-03-24T06:00:34.684Z,16.83
2017-03-24T06:01:33.139Z,16.15
2017-03-24T06:02:31.637Z,21.25
2017-03-24T06:03:30.400Z,19.48
2017-03-24T06:04:28.912Z,18.17
2017-03-24T06:05:27.369Z,19.00
2017-03-24T06:06:26.608Z,24.67
2017-03-24T06:07:25.097Z,18.23
2017-03-24T06:08:23.572Z,16.00
2017-03-24T06:09:23.139Z,14.53
2017-03-24T06:10:21.662Z,16.83
2017-03-24T06:11:20.124Z,18.08
2017-03-24T06:12:18.612Z,14.40
2017-03-24T06:13:17.081Z,16.32
2017-03-24T06:14:16.301Z,13.75
2017-03-24T06:15:15.144Z,15.25
2017-03-24T06:16:13.622Z,20.93
2017-03-24T06:17:12.868Z,21.17
2017-03-24T06:18:11.385Z,15.92
2017-03-24T06:19:09.876Z,22.15
2017-03-24T06:20:09.128Z,16.72
2017-03-24T06:21:08.692Z,18.52
2017-03-24T06:22:07.194Z,20.43
2017-03-24T06:23:05.681Z,18.28
2017-03-24T06:24:04.928Z,17.53
2017-03-24T06:25:04.972Z,18.40
2017-03-24T06:26:04.268Z,18.50
2017-03-24T06:27:03.070Z,14.87
2017-03-24T06:28:01.531Z,18.30
2017-03-24T06:28:59.995Z,16.82
2017-03-24T06:29:58.473Z,18.15
2017-03-24T06:30:57.697Z,16.43
2017-03-24T06:31:56.984Z,11.23
2017-03-24T06:32:56.516Z,19.20
2017-03-24T06:33:55.048Z,17.52
2017-03-24T06:34:53.504Z,25.88
2017-03-24T06:35:52.771Z,17.77
2017-03-24T06:36:51.217Z,14.15
2017-03-24T06:37:49.692Z,14.65
2017-03-24T06:38:48.536Z,16.18
2017-03-24T06:39:47.024Z,14.40
2017-03-24T06:40:45.497Z,21.30
2017-03-24T06:41:43.970Z,14.12
2017-03-24T06:42:42.433Z,18.73
2017-03-24T06:43:40.883Z,15.45
2017-03-24T06:44:40.449Z,14.43
2017-03-24T06:45:38.919Z,17.30
2017-03-24T06:46:37.398Z,21.42
2017-03-24T06:47:36.617Z,19.90
2017-03-24T06:48:35.870Z,19.20
2017-03-24T06:49:34.354Z,15.37
2017-03-24T06:50:34.004Z,17.18
2017-03-24T06:51:32.473Z,17.75
2017-03-24T06:52:31.695Z,15.82
2017-03-24T06:53:30.917Z,16.02
2017-03-24T06:54:29.409Z,17.90
2017-03-24T06:55:27.901Z,16.00
2017-03-24T06:56:27.436Z,19.82
2017-03-24T06:57:26.674Z,18.12
2017-03-24T06:58:25.948Z,15.55
2017-03-24T06:59:24.448Z,15.48
2017-03-24T07:00:22.932Z,17.10
2017-03-24T07:01:21.477Z,15.65
2017-03-24T07:02:21.148Z,17.32
2017-03-24T07:03:19.657Z,22.73
2017-03-24T07:04:18.129Z,18.13
2017-03-24T07:05:16.668Z,14.37
2017-03-24T07:06:15.217Z,15.53
2017-03-24T07:07:14.450Z,19.87
2017-03-24T07:08:13.334Z,15.85
2017-03-24T07:09:12.569Z,18.17
2017-03-24T07:10:11.825Z,18.58
2017-03-24T07:11:11.081Z,18.40
2017-03-24T07:12:09.666Z,14.60
2017-03-24T07:13:08.168Z,18.83
2017-03-24T07:14:07.809Z,15.85
2017-03-24T07:15:06.328Z,17.50
2017-03-24T07:16:05.614Z,15.40
2017-03-24T07:17:04.897Z,16.30
2017-03-24T07:18:04.209Z,17.37
2017-03-24T07:19:03.460Z,14.72
2017-03-24T07:20:03.018Z,19.42
2017-03-24T07:21:01.477Z,16.87
2017-03-24T07:22:00.701Z,14.48
2017-03-24T07:23:00.167Z,17.57
2017-03-24T07:23:58.620Z,15.75
2017-03-24T07:24:57.097Z,16.18
2017-03-24T07:25:56.793Z,19.92
2017-03-24T07:26:56.032Z,25.22
2017-03-24T07:27:54.493Z,19.97
2017-03-24T07:28:53.725Z,16.70
2017-03-24T07:29:52.956Z,18.17
2017-03-24T07:30:51.472Z,19.05
2017-03-24T07:31:51.021Z,16.00
2017-03-24T07:32:49.500Z,16.82
2017-03-24T07:33:48.720Z,17.83
2017-03-24T07:34:48.012Z,16.72
2017-03-24T07:35:47.285Z,16.37
2017-03-24T07:36:46.532Z,13.95
2017-03-24T07:37:45.420Z,15.15
2017-03-24T07:38:43.932Z,15.45
2017-03-24T07:39:42.423Z,14.03
2017-03-24T07:40:40.880Z,14.42
2017-03-24T07:41:40.141Z,13.95
2017-03-24T07:42:39.401Z,14.63
2017-03-24T07:43:39.049Z,14.60
2017-03-24T07:44:37.513Z,14.60
2017-03-24T07:45:35.993Z,15.32
2017-03-24T07:46:35.246Z,16.73
2017-03-24T07:47:38.950Z,12.83
2017-03-24T07:48:37.444Z,14.23
2017-03-24T07:49:41.650Z,16.20
2017-03-24T07:50:41.092Z,13.68
2017-03-24T07:51:39.565Z,16.47
2017-03-24T07:52:38.019Z,14.05
2017-03-24T07:53:37.340Z,15.18
2017-03-24T07:54:35.802Z,14.37
2017-03-24T07:55:34.694Z,15.73
2017-03-24T07:56:33.161Z,13.78
2017-03-24T07:57:31.658Z,16.05
2017-03-24T07:58:30.496Z,15.92
2017-03-24T07:59:29.728Z,13.03
2017-03-24T08:00:28.197Z,12.17
2017-03-24T08:01:26.980Z,13.27
2017-03-24T08:02:26.333Z,14.22
2017-03-24T08:03:24.816Z,15.55
2017-03-24T08:04:24.093Z,15.58
2017-03-24T08:05:22.624Z,16.05
2017-03-24T08:06:21.128Z,16.45
2017-03-24T08:07:19.928Z,15.50
2017-03-24T08:08:18.395Z,15.73
2017-03-24T08:09:16.992Z,13.13
2017-03-24T08:10:15.492Z,14.17
2017-03-24T08:11:14.095Z,12.42
2017-03-24T08:12:12.573Z,24.03
2017-03-24T08:13:11.425Z,16.70
2017-03-24T08:14:09.952Z,14.58
2017-03-24T08:15:08.464Z,15.88
2017-03-24T08:16:07.780Z,14.43
2017-03-24T08:17:07.036Z,14.40
2017-03-24T08:18:06.251Z,15.02
2017-03-24T08:19:05.803Z,18.08
2017-03-24T08:20:04.320Z,16.28
2017-03-24T08:21:03.547Z,16.13
2017-03-24T08:22:02.033Z,16.78
2017-03-24T08:23:00.539Z,13.77
2017-03-24T08:23:58.996Z,17.88
2017-03-24T08:24:58.631Z,16.50
2017-03-24T08:25:57.087Z,15.47
2017-03-24T08:26:55.540Z,17.07
2017-03-24T08:27:54.788Z,14.82
2017-03-24T08:28:53.249Z,12.98
2017-03-24T08:29:51.687Z,18.43
2017-03-24T08:30:51.255Z,14.32
2017-03-24T08:31:49.708Z,16.72
2017-03-24T08:32:48.999Z,15.22
2017-03-24T08:33:47.527Z,15.35
2017-03-24T08:34:46.056Z,13.57
2017-03-24T08:35:44.513Z,13.70
2017-03-24T08:36:43.331Z,13.40
2017-03-24T08:37:42.648Z,13.50
2017-03-24T08:38:41.887Z,12.90
2017-03-24T08:39:41.134Z,13.55
2017-03-24T08:40:39.593Z,13.85
2017-03-24T08:41:38.860Z,14.75
2017-03-24T08:42:38.391Z,14.05
2017-03-24T08:43:36.847Z,13.05
2017-03-24T08:44:36.076Z,13.48
2017-03-24T08:45:35.341Z,12.78
2017-03-24T08:46:33.816Z,12.62
2017-03-24T08:47:33.060Z,12.80
2017-03-24T08:48:32.640Z,10.43
2017-03-24T08:49:31.864Z,12.18
2017-03-24T08:50:30.345Z,14.33
2017-03-24T08:51:29.592Z,11.15
2017-03-24T08:52:28.848Z,11.42
2017-03-24T08:53:27.380Z,10.32
2017-03-24T08:54:26.292Z,12.55
2017-03-24T08:55:24.764Z,11.47
2017-03-24T08:56:23.288Z,13.00
2017-03-24T08:57:22.652Z,11.47
2017-03-24T08:58:21.883Z,12.18
2017-03-24T08:59:21.201Z,10.53
2017-03-24T09:00:20.761Z,13.22
2017-03-24T09:01:20.399Z,11.28
2017-03-24T09:02:19.644Z,10.07
2017-03-24T09:03:18.109Z,10.35
2017-03-24T09:04:17.380Z,15.65
2017-03-24T09:05:16.639Z,13.10
2017-03-24T09:06:16.267Z,11.32
2017-03-24T09:07:14.885Z,10.08
2017-03-24T09:08:14.144Z,10.67
2017-03-24T09:09:12.651Z,12.47
2017-03-24T09:10:11.886Z,13.22
2017-03-24T09:11:10.352Z,9.68
2017-03-24T09:12:10.638Z,12.07
2017-03-24T09:13:09.868Z,11.33
2017-03-24T09:14:09.127Z,10.28
2017-03-24T09:15:08.661Z,19.27
2017-03-24T09:16:07.884Z,10.48
2017-03-24T09:17:07.112Z,9.53
2017-03-24T09:18:06.660Z,9.98
2017-03-24T09:19:05.149Z,10.82
2017-03-24T09:20:03.619Z,9.95
2017-03-24T09:21:02.068Z,13.23
2017-03-24T09:22:01.315Z,9.78
2017-03-24T09:22:59.760Z,8.78
2017-03-24T09:23:59.263Z,11.48
2017-03-24T09:24:57.780Z,8.78
2017-03-24T09:25:56.241Z,10.78
2017-03-24T09:26:55.492Z,12.65
2017-03-24T09:27:54.736Z,12.47
2017-03-24T09:28:54.016Z,10.55
2017-03-24T09:29:53.548Z,9.27
2017-03-24T09:30:52.796Z,12.67
2017-03-24T09:31:52.013Z,11.63
2017-03-24T09:32:51.255Z,12.12
2017-03-24T09:33:50.462Z,12.95
2017-03-24T09:34:48.921Z,11.18
2017-03-24T09:35:47.652Z,10.43
2017-03-24T09:36:46.108Z,10.27
2017-03-24T09:37:44.573Z,10.32
2017-03-24T09:38:43.019Z,9.88
2017-03-24T09:39:41.463Z,9.92
2017-03-24T09:40:39.956Z,9.55
2017-03-24T09:41:39.467Z,8.98
2017-03-24T09:42:38.696Z,8.50
2017-03-24T09:43:37.914Z,10.63
2017-03-24T09:44:36.400Z,8.60
2017-03-24T09:45:34.992Z,12.15
2017-03-24T09:46:34.231Z,9.50
2017-03-24T09:47:32.992Z,8.13
2017-03-24T09:48:31.436Z,9.43
2017-03-24T09:49:30.640Z,8.67
2017-03-24T09:50:29.854Z,9.38
2017-03-24T09:51:29.124Z,8.28
2017-03-24T09:52:27.593Z,10.68
2017-03-24T09:53:26.472Z,13.08
2017-03-24T09:54:24.932Z,10.45
2017-03-24T09:55:23.426Z,10.75
2017-03-24T09:56:22.677Z,10.85
2017-03-24T09:57:21.136Z,12.13
2017-03-24T09:58:19.624Z,9.95
2017-03-24T09:59:19.172Z,10.65
2017-03-24T10:00:17.775Z,10.18
2017-03-24T10:01:17.028Z,10.53
2017-03-24T10:02:16.268Z,11.52
2017-03-24T10:03:15.524Z,9.23
2017-03-24T10:04:14.807Z,10.12
2017-03-24T10:05:13.543Z,9.20
2017-03-24T10:06:12.004Z,10.68
2017-03-24T10:07:10.460Z,9.18
2017-03-24T10:08:09.716Z,9.57
2017-03-24T10:09:08.196Z,10.63
2017-03-24T10:10:06.692Z,9.55
2017-03-24T10:11:06.268Z,9.97
2017-03-24T10:12:04.716Z,10.17
2017-03-24T10:13:03.171Z,12.95
2017-03-24T10:14:02.422Z,8.53
2017-03-24T10:15:00.871Z,8.82
2017-03-24T10:15:59.315Z,9.43
2017-03-24T10:16:58.940Z,12.93
2017-03-24T10:17:57.383Z,11.15
2017-03-24T10:18:55.849Z,9.00
2017-03-24T10:19:55.072Z,9.80
2017-03-24T10:20:54.328Z,8.93
2017-03-24T10:21:53.548Z,11.03
2017-03-24T10:22:53.065Z,10.18
2017-03-24T10:23:51.548Z,8.85
2017-03-24T10:24:50.005Z,10.32
2017-03-24T10:25:48.459Z,12.53
2017-03-24T10:26:46.927Z,11.22
2017-03-24T10:27:46.139Z,9.78
2017-03-24T10:28:44.892Z,10.03
2017-03-24T10:29:44.133Z,10.50
2017-03-24T10:30:43.374Z,9.48
2017-03-24T10:31:42.583Z,9.80
2017-03-24T10:32:41.800Z,9.85
2017-03-24T10:33:40.248Z,9.80
2017-03-24T10:34:39.148Z,10.17
2017-03-24T10:35:37.636Z,9.70
2017-03-24T10:36:36.864Z,8.47
2017-03-24T10:37:35.348Z,9.18
2017-03-24T10:38:33.791Z,9.42
2017-03-24T10:39:33.016Z,9.45
2017-03-24T10:40:32.527Z,7.98
2017-03-24T10:41:31.023Z,10.48
2017-03-24T10:42:30.271Z,8.40
2017-03-24T10:43:28.740Z,8.65
2017-03-24T10:44:27.184Z,9.85
2017-03-24T10:45:25.660Z,9.78
2017-03-24T10:46:24.513Z,10.12
2017-03-24T10:47:23.764Z,9.87
2017-03-24T10:48:23.084Z,8.48
2017-03-24T10:49:21.569Z,8.35
2017-03-24T10:50:20.793Z,9.40
2017-03-24T10:51:21.200Z,9.73
2017-03-24T10:52:20.748Z,10.25
2017-03-24T10:53:19.976Z,15.90
2017-03-24T10:54:19.205Z,9.57
2017-03-24T10:55:17.670Z,10.58
2017-03-24T10:56:16.148Z,9.85
2017-03-24T10:57:14.655Z,11.38
2017-03-24T10:58:14.184Z,9.93
2017-03-24T10:59:12.652Z,10.87
2017-03-24T11:00:11.130Z,9.43
2017-03-24T11:01:09.576Z,9.53
2017-03-24T11:02:08.811Z,9.48
2017-03-24T11:03:08.021Z,10.92
2017-03-24T11:04:06.752Z,9.90
2017-03-24T11:05:05.251Z,9.35
2017-03-24T11:06:04.480Z,10.62
2017-03-24T11:07:02.948Z,10.57
2017-03-24T11:08:02.166Z,10.05
2017-03-24T11:09:01.405Z,9.58
2017-03-24T11:10:00.901Z,9.28
2017-03-24T11:11:00.171Z,16.10
2017-03-24T11:11:58.639Z,8.78
2017-03-24T11:12:57.145Z,11.02
2017-03-24T11:13:56.400Z,9.00
2017-03-24T11:14:54.852Z,8.15
2017-03-24T11:15:54.427Z,9.80
2017-03-24T11:16:52.872Z,9.00
2017-03-24T11:17:52.099Z,9.85
2017-03-24T11:18:50.855Z,8.55
2017-03-24T11:19:50.092Z,10.20
2017-03-24T11:20:49.328Z,10.57
2017-03-24T11:21:48.085Z,10.33
2017-03-24T11:22:46.544Z,9.12
2017-03-24T11:23:45.019Z,9.62
2017-03-24T11:24:43.476Z,9.63
2017-03-24T11:25:41.920Z,9.85
2017-03-24T11:26:40.364Z,9.03
2017-03-24T11:27:39.904Z,9.17
2017-03-24T11:28:39.124Z,9.60
2017-03-24T11:29:38.413Z,11.00
2017-03-24T11:30:37.636Z,8.77
2017-03-24T11:31:36.089Z,8.68
2017-03-24T11:32:35.309Z,8.70
2017-03-24T11:33:34.168Z,8.87
2017-03-24T11:34:32.628Z,10.43
2017-03-24T11:35:31.100Z,7.78
2017-03-24T11:36:29.575Z,9.88
2017-03-24T11:37:28.887Z,9.98
2017-03-24T11:38:27.336Z,8.13
2017-03-24T11:39:26.192Z,10.72
2017-03-24T11:40:24.700Z,9.52
2017-03-24T11:41:23.975Z,9.42
2017-03-24T11:42:22.448Z,9.88
2017-03-24T11:43:20.949Z,9.25
2017-03-24T11:44:19.504Z,10.33
2017-03-24T11:45:19.123Z,10.32
2017-03-24T11:46:17.588Z,9.15
2017-03-24T11:47:16.044Z,9.80
2017-03-24T11:48:15.288Z,11.77
2017-03-24T11:49:14.580Z,10.27
2017-03-24T11:50:13.847Z,9.02
2017-03-24T11:51:12.675Z,9.23
2017-03-24T11:52:11.192Z,8.70
2017-03-24T11:53:10.419Z,11.17
2017-03-24T11:54:08.892Z,8.43
2017-03-24T11:55:07.360Z,8.68
2017-03-24T11:56:06.611Z,9.25
2017-03-24T11:57:05.421Z,9.47
2017-03-24T11:58:03.881Z,8.43
2017-03-24T11:59:02.340Z,7.58
2017-03-24T12:00:00.861Z,8.65
2017-03-24T12:01:00.148Z,9.27
2017-03-24T12:01:59.351Z,8.62
2017-03-24T12:02:58.863Z,9.97
2017-03-24T12:03:57.320Z,9.10
2017-03-24T12:04:56.589Z,8.90
2017-03-24T12:05:55.800Z,8.67
2017-03-24T12:06:54.264Z,8.92
2017-03-24T12:07:52.715Z,8.55
2017-03-24T12:08:51.492Z,8.72
2017-03-24T12:09:50.760Z,7.78
2017-03-24T12:10:49.209Z,9.88
2017-03-24T12:11:47.656Z,8.67
2017-03-24T12:12:46.247Z,8.05
2017-03-24T12:13:44.723Z,8.12
2017-03-24T12:14:43.464Z,8.80
2017-03-24T12:15:42.706Z,9.47
2017-03-24T12:16:41.928Z,10.15
2017-03-24T12:17:41.131Z,9.22
2017-03-24T12:18:40.372Z,7.82
2017-03-24T12:19:38.832Z,7.97
2017-03-24T12:20:37.685Z,8.80
2017-03-24T12:21:36.924Z,7.95
2017-03-24T12:22:36.159Z,9.97
2017-03-24T12:23:34.768Z,7.88
2017-03-24T12:24:34.061Z,8.08
2017-03-24T12:25:32.512Z,9.08
2017-03-24T12:26:32.037Z,8.30
2017-03-24T12:27:30.476Z,7.72
2017-03-24T12:28:29.698Z,9.63
2017-03-24T12:29:28.144Z,7.15
2017-03-24T12:30:26.676Z,7.22
2017-03-24T12:31:25.985Z,8.53
2017-03-24T12:32:24.929Z,7.78
2017-03-24T12:33:24.145Z,7.33
2017-03-24T12:34:23.398Z,7.48
2017-03-24T12:35:21.852Z,10.00
2017-03-24T12:36:20.734Z,7.12
2017-03-24T12:37:19.959Z,7.72
2017-03-24T12:38:18.847Z,10.02
2017-03-24T12:39:17.324Z,7.32
2017-03-24T12:40:15.812Z,7.95
2017-03-24T12:41:14.275Z,7.73
2017-03-24T12:42:12.796Z,8.52
2017-03-24T12:43:11.264Z,8.82